Time;durP1;ratioP1;P1;durP2;ratioP2;P2;SDS_P1;SDS_P2;PMS_P1;PMS_P2;Temp;Humidity;BMP_temperature;BMP_pressure;BME280_temperature;BME280_humidity;BME280_pressure;Samples;Min_cycle;Max_cycle;Signal;HPM_P1;HPM_P2
2023/03/17 00:00:06;;;;;;;3.60;2.43;;;;;;;;;;4967646;28;20193;-80
2023/03/17 00:02:32;;;;;;;3.20;2.43;;;;;;;;;;4982513;28;20196;-81
2023/03/17 00:04:57;;;;;;;3.23;2.30;;;;;;;;;;4976323;28;20175;-81
2023/03/17 00:07:22;;;;;;;2.40;2.20;;;;;;;;;;4976946;28;20188;-81
2023/03/17 00:09:48;;;;;;;3.23;2.23;;;;;;;;;;4976566;28;20269;-81
2023/03/17 00:12:14;;;;;;;2.20;2.00;;;;;;;;;;4978273;28;20180;-82
2023/03/17 00:14:40;;;;;;;3.00;2.33;;;;;;;;;;4976335;28;20205;-83
2023/03/17 00:17:11;;;;;;;3.67;2.40;;;;;;;;;;4977027;28;20182;-82
2023/03/17 00:19:36;;;;;;;2.23;2.00;;;;;;;;;;4998245;28;20222;-83
2023/03/17 00:22:02;;;;;;;2.63;2.23;;;;;;;;;;4977340;28;20183;-83
2023/03/17 00:24:27;;;;;;;2.17;1.97;;;;;;;;;;4984729;28;20187;-83
2023/03/17 00:26:53;;;;;;;2.17;1.97;;;;;;;;;;4980137;28;20191;-83
2023/03/17 00:29:18;;;;;;;3.57;2.37;;;;;;;;;;4977237;28;20244;-82
2023/03/17 00:31:44;;;;;;;2.23;2.03;;;;;;;;;;4977568;28;20199;-83
2023/03/17 00:34:12;;;;;;;3.50;2.13;;;;;;;;;;4975662;28;20231;-83
2023/03/17 00:36:37;;;;;;;2.80;2.13;;;;;;;;;;4993617;28;20274;-83
2023/03/17 00:39:05;;;;;;;6.40;2.77;;;;;;;;;;4983450;28;20268;-82
2023/03/17 00:41:30;;;;;;;3.17;2.90;;;;;;;;;;4982416;28;20189;-83
2023/03/17 00:43:56;;;;;;;4.63;3.00;;;;;;;;;;4973108;28;20318;-83
2023/03/17 00:46:34;;;;;;;3.70;2.90;;;;;;;;;;4972871;28;20188;-82
2023/03/17 00:49:00;;;;;;;2.70;2.50;;;;;;;;;;4973787;28;20183;-82
2023/03/17 00:51:25;;;;;;;2.87;2.30;;;;;;;;;;4972362;28;20182;-83
2023/03/17 00:53:51;;;;;;;3.83;2.43;;;;;;;;;;4974578;28;20308;-83
2023/03/17 00:56:17;;;;;;;3.73;2.63;;;;;;;;;;4973382;28;20172;-83
2023/03/17 00:58:43;;;;;;;4.43;2.93;;;;;;;;;;4970055;28;20178;-83
2023/03/17 01:01:09;;;;;;;2.30;2.10;;;;;;;;;;4973361;28;20192;-83
2023/03/17 01:03:34;;;;;;;3.43;3.13;;;;;;;;;;4973165;28;20173;-82
2023/03/17 01:06:01;;;;;;;3.37;2.70;;;;;;;;;;4973101;28;20187;-83
2023/03/17 01:08:28;;;;;;;3.10;2.50;;;;;;;;;;4973315;28;20179;-83
2023/03/17 01:10:55;;;;;;;3.07;2.60;;;;;;;;;;4973715;28;20278;-83
2023/03/17 01:13:20;;;;;;;2.60;2.40;;;;;;;;;;4972911;28;20197;-83
2023/03/17 01:15:47;;;;;;;3.63;2.97;;;;;;;;;;4969912;28;20184;-82
2023/03/17 01:18:13;;;;;;;3.47;2.70;;;;;;;;;;4972129;28;20239;-83
2023/03/17 01:20:39;;;;;;;5.00;2.90;;;;;;;;;;4971034;28;20184;-83
2023/03/17 01:23:05;;;;;;;3.37;2.70;;;;;;;;;;4973885;28;20187;-83
2023/03/17 01:25:31;;;;;;;3.43;2.90;;;;;;;;;;4970259;28;20251;-83
2023/03/17 01:27:58;;;;;;;4.47;3.00;;;;;;;;;;4973639;28;20263;-83
2023/03/17 01:30:29;;;;;;;2.67;2.43;;;;;;;;;;4973040;28;20186;-83
2023/03/17 01:32:55;;;;;;;4.37;3.57;;;;;;;;;;4969822;28;20188;-83
2023/03/17 01:35:21;;;;;;;3.10;2.80;;;;;;;;;;4971584;28;20214;-83
2023/03/17 01:37:46;;;;;;;3.60;3.30;;;;;;;;;;4973767;28;20180;-83
2023/03/17 01:40:22;;;;;;;3.33;2.93;;;;;;;;;;4969587;28;20185;-83
2023/03/17 01:42:53;;;;;;;4.37;3.03;;;;;;;;;;4965571;28;20228;-83
2023/03/17 01:45:37;;;;;;;3.23;2.70;;;;;;;;;;4971648;28;20197;-82
2023/03/17 01:48:02;;;;;;;2.97;2.70;;;;;;;;;;4968652;28;20218;-83
2023/03/17 01:50:28;;;;;;;4.10;2.97;;;;;;;;;;4971797;28;20201;-83
2023/03/17 01:52:53;;;;;;;3.47;2.83;;;;;;;;;;4972083;28;20219;-83
2023/03/17 01:55:18;;;;;;;2.97;2.67;;;;;;;;;;4970151;28;20221;-83
2023/03/17 01:57:49;;;;;;;3.07;2.73;;;;;;;;;;4971965;28;20262;-82
2023/03/17 02:00:19;;;;;;;3.17;2.83;;;;;;;;;;4968370;28;20219;-83
2023/03/17 02:02:50;;;;;;;3.83;2.40;;;;;;;;;;4971921;28;20228;-83
2023/03/17 02:05:18;;;;;;;3.90;2.73;;;;;;;;;;4972949;28;20177;-83
2023/03/17 02:07:44;;;;;;;2.80;2.30;;;;;;;;;;4971903;28;20188;-82
2023/03/17 02:10:10;;;;;;;3.33;2.53;;;;;;;;;;4966410;28;20179;-83
2023/03/17 02:12:35;;;;;;;2.73;2.37;;;;;;;;;;4971793;28;20177;-83
2023/03/17 02:15:01;;;;;;;2.83;2.40;;;;;;;;;;4972102;28;20219;-83
2023/03/17 02:17:26;;;;;;;4.37;2.20;;;;;;;;;;4973587;28;20187;-83
2023/03/17 02:19:52;;;;;;;3.00;2.80;;;;;;;;;;4970892;28;20283;-83
2023/03/17 02:22:18;;;;;;;4.13;2.50;;;;;;;;;;4971155;28;20185;-83
2023/03/17 02:24:44;;;;;;;2.60;2.23;;;;;;;;;;4970756;28;20184;-82
2023/03/17 02:27:16;;;;;;;2.83;2.63;;;;;;;;;;4971694;28;20184;-83
2023/03/17 02:29:41;;;;;;;2.17;1.97;;;;;;;;;;4971895;28;20195;-83
2023/03/17 02:32:08;;;;;;;2.23;2.03;;;;;;;;;;4971940;28;20187;-83
2023/03/17 02:34:34;;;;;;;2.57;2.37;;;;;;;;;;4963990;28;20217;-82
2023/03/17 02:36:59;;;;;;;2.50;2.00;;;;;;;;;;4971620;28;20182;-83
2023/03/17 02:39:24;;;;;;;2.53;2.17;;;;;;;;;;4969829;28;20177;-83
2023/03/17 02:41:50;;;;;;;2.37;2.17;;;;;;;;;;4968898;28;20211;-83
2023/03/17 02:44:16;;;;;;;2.53;2.20;;;;;;;;;;4973870;28;20439;-82
2023/03/17 02:46:41;;;;;;;2.03;1.87;;;;;;;;;;4972483;28;20193;-83
2023/03/17 02:49:07;;;;;;;2.30;1.80;;;;;;;;;;4971915;28;20187;-83
2023/03/17 02:51:32;;;;;;;2.43;2.10;;;;;;;;;;4976266;28;20184;-83
2023/03/17 02:53:57;;;;;;;2.37;1.97;;;;;;;;;;4975777;28;20304;-82
2023/03/17 02:56:22;;;;;;;1.60;1.50;;;;;;;;;;4975246;28;20214;-82
2023/03/17 02:58:48;;;;;;;1.50;1.40;;;;;;;;;;4971144;28;20263;-83
2023/03/17 03:01:13;;;;;;;1.97;1.70;;;;;;;;;;4970877;28;20208;-82
2023/03/17 03:03:39;;;;;;;1.93;1.83;;;;;;;;;;4971598;28;20175;-83
2023/03/17 03:06:04;;;;;;;1.63;1.53;;;;;;;;;;4973031;28;20189;-83
2023/03/17 03:08:29;;;;;;;1.63;1.53;;;;;;;;;;4974145;28;20183;-83
2023/03/17 03:10:55;;;;;;;3.63;1.77;;;;;;;;;;4976870;28;20188;-83
2023/03/17 03:13:20;;;;;;;3.53;2.00;;;;;;;;;;4977686;28;20321;-83
2023/03/17 03:15:46;;;;;;;2.10;1.90;;;;;;;;;;4975668;28;20176;-82
2023/03/17 03:18:11;;;;;;;2.20;2.00;;;;;;;;;;4981226;28;20219;-83
2023/03/17 03:20:37;;;;;;;2.30;1.63;;;;;;;;;;4975115;28;20179;-83
2023/03/17 03:23:02;;;;;;;1.50;1.40;;;;;;;;;;4975495;28;20192;-83
2023/03/17 03:25:30;;;;;;;1.60;1.47;;;;;;;;;;4973754;28;20189;-83
2023/03/17 03:27:55;;;;;;;1.80;1.60;;;;;;;;;;4980121;28;20184;-83
2023/03/17 03:30:20;;;;;;;1.30;1.20;;;;;;;;;;4974533;28;20176;-83
2023/03/17 03:32:46;;;;;;;2.13;1.93;;;;;;;;;;4979253;28;20185;-83
2023/03/17 03:35:11;;;;;;;2.07;1.53;;;;;;;;;;4982464;28;20205;-83
2023/03/17 03:37:37;;;;;;;1.73;1.60;;;;;;;;;;4975003;28;20180;-83
2023/03/17 03:40:03;;;;;;;2.00;1.70;;;;;;;;;;4975048;28;20184;-83
2023/03/17 03:42:28;;;;;;;1.43;1.33;;;;;;;;;;4972083;28;20233;-83
2023/03/17 03:44:53;;;;;;;2.30;2.10;;;;;;;;;;4973826;28;20192;-83
2023/03/17 03:47:18;;;;;;;1.60;1.50;;;;;;;;;;4972892;28;20184;-83
2023/03/17 03:49:43;;;;;;;2.13;1.93;;;;;;;;;;4973833;28;20186;-83
2023/03/17 03:52:09;;;;;;;2.43;1.50;;;;;;;;;;4973467;28;20206;-83
2023/03/17 03:54:34;;;;;;;1.87;1.70;;;;;;;;;;4974244;28;20226;-83
2023/03/17 03:56:59;;;;;;;3.10;1.80;;;;;;;;;;4973256;28;20184;-83
2023/03/17 03:59:25;;;;;;;2.13;1.90;;;;;;;;;;4974958;28;20217;-83
2023/03/17 04:01:50;;;;;;;2.90;2.03;;;;;;;;;;4973770;28;20184;-83
2023/03/17 04:04:16;;;;;;;2.43;2.07;;;;;;;;;;4974098;28;20180;-83
2023/03/17 04:06:41;;;;;;;2.43;1.73;;;;;;;;;;4972923;28;20192;-82
2023/03/17 04:09:08;;;;;;;3.40;2.97;;;;;;;;;;4971354;28;20322;-83
2023/03/17 04:11:33;;;;;;;2.80;2.50;;;;;;;;;;4973829;28;20198;-83
2023/03/17 04:13:58;;;;;;;3.37;2.13;;;;;;;;;;4972722;28;20216;-83
2023/03/17 04:16:23;;;;;;;2.37;2.17;;;;;;;;;;4975044;28;20183;-83
2023/03/17 04:18:49;;;;;;;2.63;2.43;;;;;;;;;;4972988;28;20184;-83
2023/03/17 04:21:17;;;;;;;2.40;1.93;;;;;;;;;;4973561;28;20180;-82
2023/03/17 04:23:42;;;;;;;2.43;2.23;;;;;;;;;;4974728;28;20189;-83
2023/03/17 04:26:08;;;;;;;2.27;2.07;;;;;;;;;;4973716;28;20196;-82
2023/03/17 04:28:33;;;;;;;2.57;2.37;;;;;;;;;;4972433;28;20229;-82
2023/03/17 04:30:58;;;;;;;2.40;2.20;;;;;;;;;;4973661;28;20227;-83
2023/03/17 04:33:23;;;;;;;2.20;2.00;;;;;;;;;;4972938;28;20202;-82
2023/03/17 04:35:49;;;;;;;3.20;2.87;;;;;;;;;;4973433;28;20231;-83
2023/03/17 04:38:14;;;;;;;3.53;2.57;;;;;;;;;;4972317;28;20177;-83
2023/03/17 04:40:39;;;;;;;2.27;2.07;;;;;;;;;;4976006;28;20276;-83
2023/03/17 04:43:05;;;;;;;2.90;2.20;;;;;;;;;;4973116;28;20216;-82
2023/03/17 04:45:30;;;;;;;3.07;2.20;;;;;;;;;;4972301;28;20188;-83
2023/03/17 04:47:55;;;;;;;2.90;2.10;;;;;;;;;;4972684;28;20185;-82
2023/03/17 04:50:21;;;;;;;4.27;2.70;;;;;;;;;;4973636;28;20215;-83
2023/03/17 04:52:46;;;;;;;2.70;2.43;;;;;;;;;;4973001;28;20188;-83
2023/03/17 04:55:11;;;;;;;3.13;2.50;;;;;;;;;;4971120;28;20208;-82
2023/03/17 04:57:37;;;;;;;4.07;2.30;;;;;;;;;;4973810;28;20272;-82
2023/03/17 05:00:03;;;;;;;2.67;2.27;;;;;;;;;;4980555;28;20192;-83
2023/03/17 05:02:29;;;;;;;2.73;2.30;;;;;;;;;;4971210;28;20184;-82
2023/03/17 05:04:54;;;;;;;2.80;2.03;;;;;;;;;;4978628;28;20191;-82
2023/03/17 05:07:20;;;;;;;2.30;2.10;;;;;;;;;;4974502;28;20183;-82
2023/03/17 05:09:46;;;;;;;2.67;2.30;;;;;;;;;;4970209;28;20197;-82
2023/03/17 05:12:11;;;;;;;1.80;1.70;;;;;;;;;;4969778;28;20189;-82
2023/03/17 05:14:37;;;;;;;3.47;1.80;;;;;;;;;;4973390;28;20229;-82
2023/03/17 05:17:02;;;;;;;2.60;1.77;;;;;;;;;;4972738;28;20195;-82
2023/03/17 05:19:27;;;;;;;1.87;1.70;;;;;;;;;;4974265;28;20183;-82
2023/03/17 05:21:52;;;;;;;1.90;1.80;;;;;;;;;;4972551;28;20211;-82
2023/03/17 05:24:18;;;;;;;2.60;2.10;;;;;;;;;;4971405;28;20214;-83
2023/03/17 05:26:44;;;;;;;1.60;1.50;;;;;;;;;;4972694;28;20177;-82
2023/03/17 05:29:09;;;;;;;2.63;1.60;;;;;;;;;;4973713;28;20181;-82
2023/03/17 05:31:35;;;;;;;2.07;1.60;;;;;;;;;;4971797;28;20191;-83
2023/03/17 05:34:01;;;;;;;2.00;1.83;;;;;;;;;;4971427;28;20204;-83
2023/03/17 05:36:26;;;;;;;1.33;1.23;;;;;;;;;;4972386;28;20203;-83
2023/03/17 05:38:51;;;;;;;1.60;1.50;;;;;;;;;;4972214;28;20246;-83
2023/03/17 05:41:16;;;;;;;2.63;1.73;;;;;;;;;;4971693;28;20182;-82
2023/03/17 05:43:42;;;;;;;4.10;1.60;;;;;;;;;;4972102;28;20231;-82
2023/03/17 05:46:08;;;;;;;1.90;1.80;;;;;;;;;;4969090;28;20187;-83
2023/03/17 05:48:33;;;;;;;1.63;1.50;;;;;;;;;;4972466;28;20229;-83
2023/03/17 05:50:59;;;;;;;1.23;1.13;;;;;;;;;;4974420;28;20204;-83
2023/03/17 05:53:24;;;;;;;1.53;1.23;;;;;;;;;;4972543;28;20284;-83
2023/03/17 05:55:51;;;;;;;1.43;1.10;;;;;;;;;;4973445;28;20188;-83
2023/03/17 05:58:17;;;;;;;1.10;1.00;;;;;;;;;;4971062;28;20177;-83
2023/03/17 06:00:42;;;;;;;1.60;1.00;;;;;;;;;;4971165;28;20240;-83
2023/03/17 06:03:08;;;;;;;1.60;1.00;;;;;;;;;;4967065;28;20273;-83
2023/03/17 06:05:33;;;;;;;3.43;1.00;;;;;;;;;;4971076;28;20218;-82
2023/03/17 06:07:59;;;;;;;1.43;1.17;;;;;;;;;;4973924;28;20221;-78
2023/03/17 06:10:25;;;;;;;1.90;1.20;;;;;;;;;;4967559;28;20275;-80
2023/03/17 06:12:50;;;;;;;1.30;1.20;;;;;;;;;;4976208;28;20183;-80
2023/03/17 06:15:15;;;;;;;1.43;0.90;;;;;;;;;;4971635;28;20251;-79
2023/03/17 06:17:41;;;;;;;1.30;1.20;;;;;;;;;;4972386;28;20176;-80
2023/03/17 06:20:07;;;;;;;1.30;1.20;;;;;;;;;;4973881;28;20279;-80
2023/03/17 06:22:32;;;;;;;2.20;1.10;;;;;;;;;;4970679;28;20179;-79
2023/03/17 06:24:57;;;;;;;1.03;1.00;;;;;;;;;;4971495;28;20212;-80
2023/03/17 06:27:22;;;;;;;1.23;1.00;;;;;;;;;;4969907;28;20185;-80
2023/03/17 06:29:47;;;;;;;1.07;0.93;;;;;;;;;;4973222;28;20240;-79
2023/03/17 06:32:13;;;;;;;1.07;0.90;;;;;;;;;;4982523;28;20184;-80
2023/03/17 06:34:39;;;;;;;1.10;1.00;;;;;;;;;;4970355;28;20235;-80
2023/03/17 06:37:04;;;;;;;1.47;0.90;;;;;;;;;;4969863;28;20192;-80
2023/03/17 06:39:29;;;;;;;1.80;0.97;;;;;;;;;;4971336;28;20184;-79
2023/03/17 06:41:55;;;;;;;0.83;0.70;;;;;;;;;;4972265;28;20233;-80
2023/03/17 06:44:20;;;;;;;6.10;2.37;;;;;;;;;;4969879;28;20229;-80
2023/03/17 06:46:45;;;;;;;1.10;1.00;;;;;;;;;;4971193;28;20236;-80
2023/03/17 06:49:14;;;;;;;1.00;0.90;;;;;;;;;;4971647;28;20250;-80
2023/03/17 06:51:39;;;;;;;0.77;0.77;;;;;;;;;;4970991;28;20197;-79
2023/03/17 06:54:05;;;;;;;1.10;1.00;;;;;;;;;;4966929;28;20343;-80
2023/03/17 06:56:30;;;;;;;1.17;1.00;;;;;;;;;;4970915;28;20177;-80
2023/03/17 06:58:56;;;;;;;1.93;1.23;;;;;;;;;;4970358;28;20187;-80
2023/03/17 07:01:22;;;;;;;1.10;1.00;;;;;;;;;;4969981;28;20232;-80
2023/03/17 07:03:47;;;;;;;0.90;0.90;;;;;;;;;;4974256;28;20181;-80
2023/03/17 07:06:13;;;;;;;1.63;1.00;;;;;;;;;;4971295;28;20220;-80
2023/03/17 07:08:40;;;;;;;0.90;0.90;;;;;;;;;;4970574;28;20180;-80
2023/03/17 07:11:05;;;;;;;1.57;0.90;;;;;;;;;;4969477;28;20182;-80
2023/03/17 07:13:34;;;;;;;1.00;0.80;;;;;;;;;;4981878;28;20242;-80
2023/03/17 07:15:59;;;;;;;1.03;0.90;;;;;;;;;;4968137;28;20235;-80
2023/03/17 07:18:25;;;;;;;13.57;3.10;;;;;;;;;;4968193;28;20179;-80
2023/03/17 07:20:50;;;;;;;1.60;1.50;;;;;;;;;;4979155;28;20181;-78
2023/03/17 07:23:19;;;;;;;3.23;1.90;;;;;;;;;;4966951;28;20210;-78
2023/03/17 07:25:45;;;;;;;3.77;1.20;;;;;;;;;;4967104;28;20204;-78
2023/03/17 07:28:11;;;;;;;1.17;0.97;;;;;;;;;;4970164;28;20180;-78
2023/03/17 07:30:37;;;;;;;4.20;1.27;;;;;;;;;;4972265;28;20180;-78
2023/03/17 07:33:02;;;;;;;1.83;1.43;;;;;;;;;;4963645;28;20185;-78
2023/03/17 07:35:29;;;;;;;2.13;1.70;;;;;;;;;;4968146;28;20236;-78
2023/03/17 07:37:55;;;;;;;3.40;2.57;;;;;;;;;;4973663;28;20209;-78
2023/03/17 07:40:20;;;;;;;3.90;1.97;;;;;;;;;;4970020;28;20212;-78
2023/03/17 07:42:45;;;;;;;2.63;1.30;;;;;;;;;;4970661;28;20228;-79
2023/03/17 07:45:11;;;;;;;1.47;1.13;;;;;;;;;;4971651;28;20208;-77
2023/03/17 07:47:38;;;;;;;1.23;1.10;;;;;;;;;;4970854;28;20241;-78
2023/03/17 07:50:04;;;;;;;1.27;1.23;;;;;;;;;;4968792;28;20182;-79
2023/03/17 07:52:29;;;;;;;1.40;1.10;;;;;;;;;;4970856;28;20280;-78
2023/03/17 07:54:54;;;;;;;1.13;1.03;;;;;;;;;;4973134;28;20271;-79
2023/03/17 07:57:20;;;;;;;3.20;1.30;;;;;;;;;;4973609;28;20185;-78
2023/03/17 07:59:46;;;;;;;1.10;0.83;;;;;;;;;;4975611;28;20190;-78
2023/03/17 08:02:15;;;;;;;0.67;0.60;;;;;;;;;;4974797;28;20187;-79
2023/03/17 08:04:40;;;;;;;0.80;0.80;;;;;;;;;;4974549;28;20177;-78
2023/03/17 08:07:06;;;;;;;1.40;0.90;;;;;;;;;;4971533;28;20193;-78
2023/03/17 08:09:31;;;;;;;1.13;0.80;;;;;;;;;;4974861;28;20202;-78
2023/03/17 08:11:57;;;;;;;1.57;1.20;;;;;;;;;;4973001;28;20189;-78
2023/03/17 08:14:22;;;;;;;3.60;1.33;;;;;;;;;;4974277;28;20199;-78
2023/03/17 08:16:47;;;;;;;2.03;1.73;;;;;;;;;;4975088;28;20248;-78
2023/03/17 08:19:12;;;;;;;1.57;1.23;;;;;;;;;;4976685;28;20220;-78
2023/03/17 08:21:37;;;;;;;1.10;1.00;;;;;;;;;;4971734;28;20190;-78
2023/03/17 08:24:04;;;;;;;1.40;1.10;;;;;;;;;;4973821;28;20201;-78
2023/03/17 08:26:30;;;;;;;1.33;1.23;;;;;;;;;;4971928;28;20191;-78
2023/03/17 08:28:55;;;;;;;1.33;1.00;;;;;;;;;;4973835;28;20183;-78
2023/03/17 08:31:21;;;;;;;1.00;0.87;;;;;;;;;;4972976;28;20278;-78
2023/03/17 08:33:47;;;;;;;1.70;0.80;;;;;;;;;;4974045;28;20277;-78
2023/03/17 08:36:13;;;;;;;0.80;0.80;;;;;;;;;;4971174;28;20179;-78
2023/03/17 08:38:39;;;;;;;1.13;1.00;;;;;;;;;;4970878;28;20179;-79
2023/03/17 08:41:06;;;;;;;1.27;1.00;;;;;;;;;;4973502;28;20188;-78
2023/03/17 08:43:32;;;;;;;1.13;1.07;;;;;;;;;;4966754;28;20227;-78
2023/03/17 08:46:00;;;;;;;1.67;1.00;;;;;;;;;;4974926;28;20187;-78
2023/03/17 08:48:25;;;;;;;1.00;0.90;;;;;;;;;;4974037;28;20262;-78
2023/03/17 08:50:51;;;;;;;1.20;1.10;;;;;;;;;;4973134;28;20283;-78
2023/03/17 08:53:16;;;;;;;1.03;0.93;;;;;;;;;;4970175;28;20187;-78
2023/03/17 08:55:41;;;;;;;1.00;0.90;;;;;;;;;;4971553;28;20214;-78
2023/03/17 08:58:07;;;;;;;1.57;1.00;;;;;;;;;;4972459;28;20183;-78
2023/03/17 09:00:32;;;;;;;0.70;0.70;;;;;;;;;;4971319;28;20270;-78
2023/03/17 09:02:58;;;;;;;3.00;1.07;;;;;;;;;;4971868;28;20243;-78
2023/03/17 09:05:24;;;;;;;1.70;1.00;;;;;;;;;;4969825;28;20182;-78
2023/03/17 09:07:49;;;;;;;0.90;0.80;;;;;;;;;;4972783;28;20180;-79
2023/03/17 09:10:15;;;;;;;1.47;0.73;;;;;;;;;;4975083;28;20204;-78
2023/03/17 09:12:41;;;;;;;1.10;1.00;;;;;;;;;;4970697;28;20190;-78
2023/03/17 09:15:07;;;;;;;1.03;0.93;;;;;;;;;;4972436;28;20212;-78
2023/03/17 09:17:32;;;;;;;1.60;1.03;;;;;;;;;;4974965;28;20184;-78
2023/03/17 09:19:58;;;;;;;0.70;0.70;;;;;;;;;;4972111;28;20220;-78
2023/03/17 09:22:23;;;;;;;0.67;0.60;;;;;;;;;;4972918;28;20199;-78
2023/03/17 09:24:49;;;;;;;0.80;0.80;;;;;;;;;;4972215;28;20208;-78
2023/03/17 09:27:15;;;;;;;1.10;0.90;;;;;;;;;;4972809;28;20246;-78
2023/03/17 09:29:40;;;;;;;1.07;0.77;;;;;;;;;;4972103;28;20189;-79
2023/03/17 09:32:07;;;;;;;1.40;1.30;;;;;;;;;;4972360;28;20188;-78
2023/03/17 09:34:34;;;;;;;3.77;0.97;;;;;;;;;;4971930;28;20210;-78
2023/03/17 09:36:59;;;;;;;2.37;1.70;;;;;;;;;;4972874;28;20180;-78
2023/03/17 09:39:26;;;;;;;2.40;1.43;;;;;;;;;;4970152;28;20187;-78
2023/03/17 09:41:51;;;;;;;2.43;1.90;;;;;;;;;;4971548;28;20209;-78
2023/03/17 09:44:16;;;;;;;4.70;1.60;;;;;;;;;;4967603;28;20220;-78
2023/03/17 09:47:01;;;;;;;4.07;2.00;;;;;;;;;;4970224;28;20187;-78
2023/03/17 09:49:45;;;;;;;1.67;1.57;;;;;;;;;;4988245;28;20186;-78
2023/03/17 09:52:30;;;;;;;2.50;1.90;;;;;;;;;;4971087;28;20185;-78
2023/03/17 09:54:59;;;;;;;2.43;1.93;;;;;;;;;;4968279;28;20221;-79
2023/03/17 09:57:28;;;;;;;3.43;2.20;;;;;;;;;;4970333;28;20182;-78
2023/03/17 10:00:00;;;;;;;3.23;2.20;;;;;;;;;;4969398;28;20189;-78
2023/03/17 10:02:32;;;;;;;3.63;2.17;;;;;;;;;;4971034;28;20196;-78
2023/03/17 10:05:05;;;;;;;3.23;2.70;;;;;;;;;;4991250;28;20190;-78
2023/03/17 10:07:39;;;;;;;3.13;2.60;;;;;;;;;;4971622;28;20193;-78
2023/03/17 10:10:12;;;;;;;2.80;2.50;;;;;;;;;;4967871;28;20186;-78
2023/03/17 10:12:41;;;;;;;2.37;2.17;;;;;;;;;;4971524;28;20232;-78
2023/03/17 10:15:15;;;;;;;1.80;1.70;;;;;;;;;;4969745;28;20351;-78
2023/03/17 10:17:40;;;;;;;5.13;3.27;;;;;;;;;;4971608;28;20195;-78
2023/03/17 10:20:12;;;;;;;4.67;2.40;;;;;;;;;;4968210;28;20265;-78
2023/03/17 10:22:43;;;;;;;3.33;3.03;;;;;;;;;;4961703;28;20191;-78
2023/03/17 10:25:13;;;;;;;2.03;1.80;;;;;;;;;;4968451;28;20182;-78
2023/03/17 10:27:39;;;;;;;2.27;2.07;;;;;;;;;;4968639;28;20194;-78
2023/03/17 10:30:12;;;;;;;3.30;1.90;;;;;;;;;;4971860;28;20189;-78
2023/03/17 10:32:38;;;;;;;4.80;4.17;;;;;;;;;;4969089;28;20184;-78
2023/03/17 10:35:03;;;;;;;2.47;2.27;;;;;;;;;;4971608;28;20276;-78
2023/03/17 10:37:35;;;;;;;2.10;1.90;;;;;;;;;;4970934;28;20232;-78
2023/03/17 10:40:03;;;;;;;3.27;1.87;;;;;;;;;;4970913;28;20202;-78
2023/03/17 10:42:29;;;;;;;2.00;1.80;;;;;;;;;;4975654;28;20245;-78
2023/03/17 10:45:00;;;;;;;3.40;2.57;;;;;;;;;;4971204;28;20184;-78
2023/03/17 10:47:32;;;;;;;3.20;2.63;;;;;;;;;;4968448;28;20193;-78
2023/03/17 10:50:01;;;;;;;5.30;2.73;;;;;;;;;;4971308;28;20205;-78
2023/03/17 10:52:32;;;;;;;32.27;14.50;;;;;;;;;;4970870;28;20245;-78
2023/03/17 10:55:03;;;;;;;17.53;11.17;;;;;;;;;;4970780;28;20225;-78
2023/03/17 10:57:28;;;;;;;10.23;7.47;;;;;;;;;;4985229;28;20188;-78
2023/03/17 10:59:54;;;;;;;2.80;2.00;;;;;;;;;;4970431;28;20185;-78
2023/03/17 11:02:34;;;;;;;4.13;2.43;;;;;;;;;;4987649;28;20179;-78
2023/03/17 11:05:02;;;;;;;7.83;4.70;;;;;;;;;;4969359;28;20199;-78
2023/03/17 11:07:34;;;;;;;10.40;3.07;;;;;;;;;;4986544;28;20181;-78
2023/03/17 11:10:01;;;;;;;4.93;1.93;;;;;;;;;;4962810;28;20262;-78
2023/03/17 11:12:48;;;;;;;2.50;2.30;;;;;;;;;;4971295;28;20210;-78
2023/03/17 11:15:18;;;;;;;3.23;2.03;;;;;;;;;;4971195;28;20241;-78
2023/03/17 11:18:07;;;;;;;2.43;1.53;;;;;;;;;;4971306;28;20183;-78
2023/03/17 11:20:38;;;;;;;1.50;1.40;;;;;;;;;;4965582;28;20286;-78
2023/03/17 11:23:14;;;;;;;1.80;1.70;;;;;;;;;;4972812;28;20189;-79
2023/03/17 11:25:41;;;;;;;2.07;1.60;;;;;;;;;;4968298;28;20193;-78
2023/03/17 11:28:15;;;;;;;1.47;1.33;;;;;;;;;;4972457;28;20325;-78
2023/03/17 11:30:47;;;;;;;2.13;1.53;;;;;;;;;;4974486;28;20247;-78
2023/03/17 11:33:32;;;;;;;2.57;1.87;;;;;;;;;;4971842;28;20190;-79
2023/03/17 11:36:07;;;;;;;2.00;1.43;;;;;;;;;;4968592;28;20193;-79
2023/03/17 11:38:36;;;;;;;2.67;1.40;;;;;;;;;;4974102;28;20184;-78
2023/03/17 11:41:01;;;;;;;5.97;1.57;;;;;;;;;;4974598;28;20188;-78
2023/03/17 11:43:30;;;;;;;1.53;1.43;;;;;;;;;;4973599;28;20283;-78
2023/03/17 11:46:14;;;;;;;2.73;1.53;;;;;;;;;;4973213;28;20203;-79
2023/03/17 11:48:39;;;;;;;1.47;1.37;;;;;;;;;;4971669;28;20269;-78
2023/03/17 11:51:08;;;;;;;2.03;1.80;;;;;;;;;;4966758;28;20266;-79
2023/03/17 11:53:44;;;;;;;1.60;1.50;;;;;;;;;;4988763;28;20187;-79
2023/03/17 11:56:15;;;;;;;1.50;1.30;;;;;;;;;;4972155;28;20179;-79
2023/03/17 11:58:42;;;;;;;1.73;1.63;;;;;;;;;;4974469;28;20206;-79
2023/03/17 12:01:11;;;;;;;1.80;1.17;;;;;;;;;;4970787;28;20194;-79
2023/03/17 12:03:48;;;;;;;6.77;2.43;;;;;;;;;;4973305;28;20195;-78
2023/03/17 12:06:20;;;;;;;1.77;1.40;;;;;;;;;;4972831;28;20183;-78
2023/03/17 12:08:55;;;;;;;2.83;1.60;;;;;;;;;;4972558;28;20173;-80
2023/03/17 12:11:23;;;;;;;2.40;1.30;;;;;;;;;;4971139;28;20206;-78
2023/03/17 12:13:51;;;;;;;1.70;1.43;;;;;;;;;;4974085;28;20223;-78
2023/03/17 12:16:21;;;;;;;2.17;1.67;;;;;;;;;;4973591;28;20192;-78
2023/03/17 12:18:56;;;;;;;1.77;1.60;;;;;;;;;;4973463;28;20288;-78
2023/03/17 12:21:26;;;;;;;2.97;1.23;;;;;;;;;;4971873;28;20192;-79
2023/03/17 12:23:55;;;;;;;2.83;1.40;;;;;;;;;;4971093;28;20211;-78
2023/03/17 12:26:41;;;;;;;1.70;1.60;;;;;;;;;;4969191;28;20216;-79
2023/03/17 12:29:13;;;;;;;2.00;1.70;;;;;;;;;;4969600;28;20187;-79
2023/03/17 12:31:43;;;;;;;1.63;1.40;;;;;;;;;;4972018;28;20180;-79
2023/03/17 12:34:20;;;;;;;1.30;1.17;;;;;;;;;;4981748;28;20210;-79
2023/03/17 12:36:47;;;;;;;2.43;1.30;;;;;;;;;;4973349;28;20180;-79
2023/03/17 12:39:15;;;;;;;2.03;1.67;;;;;;;;;;4981312;28;20266;-79
2023/03/17 12:42:00;;;;;;;1.60;1.50;;;;;;;;;;4971619;28;20173;-79
2023/03/17 12:44:25;;;;;;;1.10;1.10;;;;;;;;;;4991782;28;20313;-79
2023/03/17 12:47:23;;;;;;;1.77;1.50;;;;;;;;;;4975609;28;20240;-77
2023/03/17 12:50:01;;;;;;;5.43;1.57;;;;;;;;;;4946677;28;20295;-77
2023/03/17 12:52:36;;;;;;;1.50;1.10;;;;;;;;;;4990531;28;20199;-77
2023/03/17 12:55:03;;;;;;;3.30;1.90;;;;;;;;;;4994415;28;20243;-77
2023/03/17 12:57:30;;;;;;;1.70;1.40;;;;;;;;;;4977839;28;20176;-77
2023/03/17 13:00:14;;;;;;;14.27;2.70;;;;;;;;;;4982154;28;20188;-77
2023/03/17 13:02:39;;;;;;;2.57;1.70;;;;;;;;;;4981186;28;20229;-77
2023/03/17 13:05:06;;;;;;;10.00;1.70;;;;;;;;;;4997067;28;20275;-77
2023/03/17 13:07:36;;;;;;;3.50;2.23;;;;;;;;;;4971125;28;20192;-77
2023/03/17 13:10:01;;;;;;;7.77;2.20;;;;;;;;;;4976049;28;20197;-77
2023/03/17 13:12:39;;;;;;;3.87;1.80;;;;;;;;;;4992829;28;20191;-77
2023/03/17 13:15:22;;;;;;;6.63;2.00;;;;;;;;;;4973981;28;20225;-77
2023/03/17 13:17:48;;;;;;;3.00;2.00;;;;;;;;;;4992655;28;20172;-77
2023/03/17 13:20:13;;;;;;;1.70;1.60;;;;;;;;;;4975510;28;20181;-77
2023/03/17 13:22:57;;;;;;;2.27;1.83;;;;;;;;;;4975158;28;20251;-77
2023/03/17 13:25:38;;;;;;;3.37;2.20;;;;;;;;;;4974843;28;20185;-77
2023/03/17 13:28:09;;;;;;;2.07;1.80;;;;;;;;;;4991511;28;20233;-77
2023/03/17 13:30:35;;;;;;;4.60;2.43;;;;;;;;;;4991096;28;20234;-77
2023/03/17 13:33:12;;;;;;;1.90;1.70;;;;;;;;;;4980746;28;20184;-77
2023/03/17 13:35:40;;;;;;;5.63;2.40;;;;;;;;;;4970206;28;20203;-77
2023/03/17 13:38:16;;;;;;;2.60;1.87;;;;;;;;;;4975411;28;20391;-77
2023/03/17 13:40:57;;;;;;;1.57;1.20;;;;;;;;;;4977488;28;20183;-78
2023/03/17 13:43:48;;;;;;;2.07;1.60;;;;;;;;;;4970400;28;20282;-78
2023/03/17 13:46:35;;;;;;;2.30;1.50;;;;;;;;;;4965728;28;20187;-77
2023/03/17 13:49:01;;;;;;;1.67;1.57;;;;;;;;;;4965732;28;20207;-78
2023/03/17 13:51:32;;;;;;;4.27;2.07;;;;;;;;;;4971719;28;20179;-78
2023/03/17 13:54:24;;;;;;;1.77;1.33;;;;;;;;;;4968696;28;20198;-77
2023/03/17 13:56:51;;;;;;;1.53;1.43;;;;;;;;;;4971934;28;20199;-78
2023/03/17 13:59:18;;;;;;;1.63;1.23;;;;;;;;;;4970518;28;20186;-78
2023/03/17 14:01:47;;;;;;;2.00;1.70;;;;;;;;;;4968421;28;20205;-77
2023/03/17 14:04:20;;;;;;;7.40;1.87;;;;;;;;;;4971454;28;20187;-78
2023/03/17 14:06:46;;;;;;;1.30;1.20;;;;;;;;;;4969552;28;20180;-77
2023/03/17 14:09:21;;;;;;;1.50;1.40;;;;;;;;;;4972302;28;20177;-78
2023/03/17 14:11:46;;;;;;;2.77;1.33;;;;;;;;;;4968100;28;20173;-77
2023/03/17 14:14:11;;;;;;;1.93;1.10;;;;;;;;;;4970612;28;20208;-77
2023/03/17 14:16:46;;;;;;;1.60;1.30;;;;;;;;;;4971832;28;20204;-77
2023/03/17 14:19:28;;;;;;;3.10;2.57;;;;;;;;;;4967250;28;20213;-78
2023/03/17 14:21:57;;;;;;;1.50;1.40;;;;;;;;;;4967768;28;20199;-78
2023/03/17 14:24:30;;;;;;;1.27;1.10;;;;;;;;;;4973409;28;20185;-78
2023/03/17 14:26:56;;;;;;;1.60;1.10;;;;;;;;;;4966396;28;20180;-77
2023/03/17 14:29:25;;;;;;;1.30;1.20;;;;;;;;;;4965847;28;20177;-77
2023/03/17 14:31:57;;;;;;;1.17;1.07;;;;;;;;;;4970196;28;20185;-77
2023/03/17 14:34:23;;;;;;;1.03;1.03;;;;;;;;;;4970964;28;20210;-77
2023/03/17 14:36:50;;;;;;;1.27;1.17;;;;;;;;;;4967341;28;20184;-77
2023/03/17 14:39:23;;;;;;;1.30;1.20;;;;;;;;;;4966311;28;20169;-77
2023/03/17 14:41:59;;;;;;;1.80;1.10;;;;;;;;;;4969511;28;20191;-77
2023/03/17 14:44:24;;;;;;;2.83;1.30;;;;;;;;;;4988658;28;20267;-77
2023/03/17 14:46:50;;;;;;;1.90;1.27;;;;;;;;;;4968228;28;20177;-78